• Join FlightAware (Why Join?)
  • Login
  • US Flag 
05:10PM EDT


 

Airport Tracker/Info


-or-


 

Live Flight TrackerFlight Track Log ✈ SWA265 ✈ 02-May-2013 ✈ KABQ - KLAS

Flight Track Log - Related Links

Times and Time Zones

All times are in EDT time to prevent confusion due to time zone crossing. See the SWA265 flight status page for this flight to view local times or setup timezone preferences in your user account.

Time Position Orientation Groundspeed Altitude Reporting Facility
EDT Latitude Longitude Course Direction KTS MPH feet Rate Location/Type
08:38AM 35.0403 -106.5853 149° Southeast 138 159 6,400  Level Albuquerque Center
08:38AM 35.0264 -106.5750 149° Southeast 178 205 6,700 2,040 Climbing Albuquerque Center
08:39AM 35.0136 -106.6394 256° West 234 269 9,200 2,340 Climbing Albuquerque Center
08:40AM 35.0417 -106.7242 292° West 255 293 11,500 2,880 Climbing Albuquerque Center
08:41AM 35.0708 -106.8283 289° West 312 359 15,100 3,180 Climbing Albuquerque Center
08:42AM 35.0817 -106.9361 277° West 333 383 18,000 3,060 Climbing Albuquerque Center
08:43AM 35.0969 -107.0725 278° West 349 402 21,300 3,060 Climbing Albuquerque Center
08:44AM 35.1086 -107.1908 277° West 363 418 24,200 2,400 Climbing Albuquerque Center
08:45AM 35.1197 -107.3025 277° West 374 430 26,200 1,860 Climbing Albuquerque Center
08:46AM 35.1339 -107.4322 278° West 381 438 28,000 1,860 Climbing Albuquerque Center
08:47AM 35.1508 -107.5878 278° West 395 455 30,100 2,100 Climbing Albuquerque Center
08:48AM 35.1647 -107.7186 277° West 401 461 32,300 1,980 Climbing Albuquerque Center
08:49AM 35.1772 -107.8458 277° West 396 456 34,200 1,800 Climbing Albuquerque Center
08:50AM 35.1928 -107.9947 277° West 395 455 36,000 840 Climbing Albuquerque Center
08:52AM 35.2056 -108.1217 277° West 393 452 36,000  Level Albuquerque Center
08:53AM 35.2178 -108.2475 277° West 390 449 36,000  Level Albuquerque Center
08:54AM 35.2328 -108.3939 277° West 389 448 36,000  Level Albuquerque Center
08:55AM 35.2453 -108.5192 277° West 387 445 36,000  Level Albuquerque Center
08:56AM 35.2575 -108.6444 277° West 387 445 36,000  Level Albuquerque Center
08:57AM 35.2717 -108.7917 277° West 387 445 36,000  Level Albuquerque Center
08:58AM 35.2836 -108.9183 277° West 389 448 36,000  Level Albuquerque Center
08:59AM 35.2950 -109.0428 276° West 386 444 36,000  Level Albuquerque Center
09:00AM 35.3064 -109.1692 276° West 388 447 36,000  Level Albuquerque Center
09:01AM 35.3203 -109.3183 277° West 391 450 36,000  Level Albuquerque Center
09:02AM 35.3319 -109.4453 276° West 390 449 36,000  Level Albuquerque Center
09:03AM 35.3428 -109.5689 276° West 385 443 36,000  Level Albuquerque Center
09:04AM 35.3553 -109.7147 276° West 384 442 36,000  Level Albuquerque Center
09:05AM 35.3653 -109.8428 276° West 391 450 36,000  Level Albuquerque Center
09:06AM 35.3747 -109.9678 275° West 387 445 36,000  Level Albuquerque Center
09:07AM 35.3869 -110.1133 276° West 387 445 36,000  Level Albuquerque Center
09:08AM 35.3964 -110.2425 275° West 393 452 36,000  Level Albuquerque Center
09:09AM 35.4053 -110.3700 275° West 393 452 36,000  Level Albuquerque Center
09:10AM 35.4181 -110.5189 276° West 393 452 36,000  Level Albuquerque Center
09:11AM 35.4289 -110.6461 276° West 391 450 36,000  Level Albuquerque Center
09:12AM 35.4383 -110.7742 275° West 394 453 36,000  Level Albuquerque Center
09:13AM 35.4503 -110.9253 276° West 397 457 36,000  Level Albuquerque Center
09:14AM 35.4600 -111.0519 275° West 393 452 36,000  Level Albuquerque Center
09:15AM 35.4697 -111.1786 275° West 391 450 36,000  Level Albuquerque Center
09:16AM 35.4806 -111.3264 275° West 389 448 36,000  Level Albuquerque Center
09:17AM 35.4900 -111.4506 275° West 392 451 36,000 -360 Level Albuquerque Center
09:18AM 35.5008 -111.5853 276° West 397 457 35,300 -1,380 Descending Albuquerque Center
09:19AM 35.5089 -111.7192 274° West 396 456 33,300 -2,220 Descending Albuquerque Center
09:20AM 35.5186 -111.8522 275° West 394 453 30,900 -1,680 Descending Albuquerque Center
09:21AM 35.5283 -111.9839 275° West 391 450 30,000 -720 Descending Albuquerque Center
09:22AM 35.5372 -112.1197 275° West 398 458 29,500 -660 Descending Albuquerque Center
09:22AM 35.5411 -112.1739 275° West 399 459 29,100 -1,020 Descending Los Angeles Center
09:23AM 35.5464 -112.2542 275° West 397 457 28,500 -1,140 Descending Albuquerque Center
09:24AM 35.5564 -112.4144 274° West 395 455 27,300 -1,140 Descending Albuquerque Center
09:24AM 35.5603 -112.4694 275° West 396 456 26,900 -1,020 Descending Los Angeles Center
09:25AM 35.5683 -112.5992 274° West 388 447 25,900 -960 Descending Los Angeles Center
09:26AM 35.5767 -112.7283 275° West 379 436 25,000 -1,080 Descending Los Angeles Center
09:27AM 35.5844 -112.8553 274° West 371 427 23,800 -1,140 Descending Los Angeles Center
09:28AM 35.5911 -112.9597 275° West 341 392 22,800 -1,140 Descending Los Angeles Center
09:29AM 35.5983 -113.0958 274° West 332 382 21,600 -1,140 Descending Los Angeles Center
09:30AM 35.6058 -113.2058 275° West 325 374 20,600 -1,020 Descending Los Angeles Center
09:31AM 35.6119 -113.3172 274° West 327 376 19,600 -1,020 Descending Los Angeles Center
09:32AM 35.6183 -113.4275 274° West 328 377 18,600 -840 Descending Los Angeles Center
09:33AM 35.6242 -113.5378 274° West 326 375 18,000 -840 Descending Los Angeles Center
09:35AM 35.6383 -113.6439 279° West 319 367 17,000 -900 Descending Los Angeles Center
09:36AM 35.6578 -113.7725 281° West 319 367 16,000 -900 Descending Los Angeles Center
09:37AM 35.6747 -113.8903 280° West 345 397 15,100 -1,020 Descending Los Angeles Center
09:38AM 35.6900 -114.0067 279° West 347 399 14,000 -1,020 Descending Los Angeles Center
09:39AM 35.7064 -114.1219 280° West 343 395 13,100 -960 Descending Los Angeles Center
09:40AM 35.7217 -114.2400 279° West 338 389 12,100 -540 Descending Los Angeles Center
09:41AM 35.7394 -114.3686 280° West 312 359 12,000 -60 Descending Los Angeles Center
09:42AM 35.7508 -114.4486 280° West 299 344 12,000 -780 Level Los Angeles Center
09:42AM 35.7594 -114.4978 282° West 300 345 11,000 -1,680 Descending Los Angeles Center
09:43AM 35.7667 -114.5714 277° West 302 348 10,300 -540 Descending Los Angeles Center
09:44AM 35.7550 -114.6903 263° West 307 353 10,000 -180 Descending Los Angeles Center
09:45AM 35.7314 -114.7694 250° West 307 353 10,000  Level Los Angeles Center
09:46AM 35.6942 -114.8936 250° West 309 356 10,000  Level Los Angeles Center
09:47AM 35.6736 -114.9667 251° West 306 352 10,000 -360 Level Los Angeles Center
09:48AM 35.6608 -115.0647 261° West 296 341 9,400 -540 Descending Los Angeles Center
09:49AM 35.6617 -115.1586 271° West 283 326 9,000 -240 Descending Los Angeles Center
09:50AM 35.6967 -115.2314 301° West 266 306 9,000 -480 Level Los Angeles Center
09:51AM 35.7697 -115.2689 337° Northwest 224 258 8,000 -900 Descending Los Angeles Center
09:52AM 35.8242 -115.2958 338° Northwest 228 262 7,200 -720 Descending Los Angeles Center
09:53AM 35.8778 -115.2833 11° North 215 247 6,700 -780 Descending Los Angeles Center
09:54AM 35.9253 -115.2550 26° Northeast 199 229 5,700 -1,140 Descending Los Angeles Center
09:55AM 35.9803 -115.2236 25° Northeast 188 216 4,300 -1,140 Descending Los Angeles Center
09:56AM 36.0208 -115.2022 23° Northeast 157 181 3,400 -780 Descending Los Angeles Center
09:57AM 36.0489 -115.1833 29° Northeast 121 139 2,800 -420 Descending Los Angeles Center
09:58AM 36.0789 -115.1683 22° Northeast 121 139 2,600 -240 Descending Los Angeles Center